Time;durP1;ratioP1;P1;durP2;ratioP2;P2;SDS_P1;SDS_P2;PMS_P1;PMS_P2;Temp;Humidity;BMP_temperature;BMP_pressure;BME280_temperature;BME280_humidity;BME280_pressure;Samples;Min_cycle;Max_cycle;Signal;HPM_P1;HPM_P2
2022/07/10 00:00:38;;;;;;;3.22;1.70;;;;;;;;;;5035385;28;20398;-71
2022/07/10 00:03:05;;;;;;;8.45;2.38;;;;;;;;;;5026998;28;20053;-72
2022/07/10 00:05:35;;;;;;;5.57;1.88;;;;;;;;;;5025722;28;20115;-70
2022/07/10 00:08:02;;;;;;;8.80;2.20;;;;;;;;;;5024332;28;20045;-71
2022/07/10 00:10:28;;;;;;;5.47;1.90;;;;;;;;;;5031127;28;20058;-69
2022/07/10 00:12:54;;;;;;;6.32;2.10;;;;;;;;;;5028208;28;20057;-71
2022/07/10 00:15:21;;;;;;;6.75;2.20;;;;;;;;;;5025545;28;20057;-71
2022/07/10 00:17:48;;;;;;;4.07;1.60;;;;;;;;;;5029309;28;20056;-71
2022/07/10 00:20:14;;;;;;;4.22;1.80;;;;;;;;;;5030289;28;20064;-70
2022/07/10 00:22:41;;;;;;;6.78;2.08;;;;;;;;;;5029777;28;20077;-72
2022/07/10 00:25:10;;;;;;;9.48;1.98;;;;;;;;;;5027240;28;20144;-71
2022/07/10 00:27:36;;;;;;;7.85;1.77;;;;;;;;;;5028323;28;20072;-69
2022/07/10 00:30:02;;;;;;;6.63;1.80;;;;;;;;;;5028463;28;20103;-66
2022/07/10 00:32:28;;;;;;;7.78;1.98;;;;;;;;;;5033589;28;20106;-72
2022/07/10 00:34:54;;;;;;;6.53;1.80;;;;;;;;;;5028779;28;20441;-73
2022/07/10 00:37:23;;;;;;;5.18;2.10;;;;;;;;;;5025133;28;20049;-72
2022/07/10 00:39:49;;;;;;;5.47;1.95;;;;;;;;;;5030584;28;20087;-72
2022/07/10 00:42:16;;;;;;;5.13;1.75;;;;;;;;;;5021511;28;20065;-70
2022/07/10 00:44:43;;;;;;;3.60;1.50;;;;;;;;;;5025728;28;20139;-71
2022/07/10 00:47:10;;;;;;;4.43;1.73;;;;;;;;;;5015124;28;20061;-71
2022/07/10 00:49:38;;;;;;;4.63;1.70;;;;;;;;;;5027652;28;20136;-72
2022/07/10 00:52:07;;;;;;;4.70;1.88;;;;;;;;;;5034206;28;20103;-70
2022/07/10 00:54:34;;;;;;;8.25;1.90;;;;;;;;;;5031790;28;20127;-70
2022/07/10 00:57:02;;;;;;;5.30;1.63;;;;;;;;;;5025854;28;20056;-72
2022/07/10 00:59:29;;;;;;;6.65;1.77;;;;;;;;;;5028195;28;20045;-71
2022/07/10 01:01:55;;;;;;;6.68;2.13;;;;;;;;;;5032884;28;20049;-71
2022/07/10 01:04:21;;;;;;;7.30;2.20;;;;;;;;;;5026579;28;20041;-70
2022/07/10 01:06:47;;;;;;;7.22;2.08;;;;;;;;;;5031527;28;20572;-71
2022/07/10 01:09:13;;;;;;;6.60;2.10;;;;;;;;;;5027159;28;20103;-71
2022/07/10 01:11:39;;;;;;;4.15;1.67;;;;;;;;;;5028839;28;20053;-72
2022/07/10 01:14:06;;;;;;;5.68;1.80;;;;;;;;;;5029347;28;20056;-70
2022/07/10 01:16:32;;;;;;;7.65;1.67;;;;;;;;;;5028072;28;20084;-72
2022/07/10 01:18:58;;;;;;;5.60;1.83;;;;;;;;;;5027270;28;20053;-71
2022/07/10 01:21:31;;;;;;;5.85;1.88;;;;;;;;;;5024905;28;20053;-71
2022/07/10 01:23:57;;;;;;;4.90;1.80;;;;;;;;;;5025318;28;20057;-73
2022/07/10 01:26:24;;;;;;;4.72;1.77;;;;;;;;;;5028479;28;20056;-74
2022/07/10 01:28:51;;;;;;;6.38;1.80;;;;;;;;;;5028416;28;20202;-70
2022/07/10 01:31:18;;;;;;;3.63;1.73;;;;;;;;;;5042660;28;20184;-71
2022/07/10 01:33:46;;;;;;;5.50;1.90;;;;;;;;;;5026466;28;20506;-72
2022/07/10 01:36:12;;;;;;;9.77;2.60;;;;;;;;;;5035577;28;20561;-71
2022/07/10 01:38:40;;;;;;;5.13;2.83;;;;;;;;;;5030589;28;20045;-72
2022/07/10 01:41:06;;;;;;;8.38;2.97;;;;;;;;;;5031495;28;20056;-72
2022/07/10 01:43:32;;;;;;;5.45;2.80;;;;;;;;;;5030834;28;20059;-71
2022/07/10 01:45:58;;;;;;;10.75;3.75;;;;;;;;;;5021811;28;21083;-70
2022/07/10 01:48:25;;;;;;;7.55;3.70;;;;;;;;;;5029043;28;20464;-71
2022/07/10 01:50:51;;;;;;;11.85;4.85;;;;;;;;;;5029652;28;20532;-71
2022/07/10 01:53:17;;;;;;;13.13;5.13;;;;;;;;;;5023391;28;20058;-71
2022/07/10 01:55:43;;;;;;;10.80;4.55;;;;;;;;;;5029689;28;20048;-72
2022/07/10 01:58:09;;;;;;;9.68;5.00;;;;;;;;;;5026192;28;20068;-71
2022/07/10 02:00:34;;;;;;;8.93;4.20;;;;;;;;;;5022705;28;20048;-71
2022/07/10 02:05:44;;;;;;;;;;;;;;;;;;5027237;28;20084;-70
2022/07/10 02:08:10;;;;;;;17.02;4.30;;;;;;;;;;5027620;28;20003;-73
2022/07/10 02:10:36;;;;;;;8.40;4.15;;;;;;;;;;5029195;28;20072;-71
2022/07/10 02:13:02;;;;;;;8.85;3.90;;;;;;;;;;5028165;28;20605;-70
2022/07/10 02:15:27;;;;;;;11.82;4.45;;;;;;;;;;5027830;28;20140;-70
2022/07/10 02:17:53;;;;;;;5.43;3.60;;;;;;;;;;5023695;28;20050;-70
2022/07/10 02:20:19;;;;;;;8.45;3.95;;;;;;;;;;5027693;28;20060;-73
2022/07/10 02:22:45;;;;;;;8.55;3.50;;;;;;;;;;5024761;28;20049;-71
2022/07/10 02:25:11;;;;;;;8.02;3.03;;;;;;;;;;5026592;28;20402;-70
2022/07/10 02:27:37;;;;;;;7.28;3.30;;;;;;;;;;5026801;28;20057;-70
2022/07/10 02:30:03;;;;;;;7.82;3.50;;;;;;;;;;5028778;28;20105;-70
2022/07/10 02:32:29;;;;;;;9.63;3.10;;;;;;;;;;5025502;28;20049;-70
2022/07/10 02:34:55;;;;;;;7.13;3.17;;;;;;;;;;5027977;28;20128;-69
2022/07/10 02:37:21;;;;;;;8.43;3.50;;;;;;;;;;5025911;28;20774;-72
2022/07/10 02:39:46;;;;;;;7.40;3.35;;;;;;;;;;5025551;28;20058;-71
2022/07/10 02:42:12;;;;;;;6.85;3.10;;;;;;;;;;5027962;28;20048;-71
2022/07/10 02:44:38;;;;;;;7.50;2.78;;;;;;;;;;5025543;28;20059;-68
2022/07/10 02:47:04;;;;;;;5.55;2.88;;;;;;;;;;5025596;28;20064;-72
2022/07/10 02:49:30;;;;;;;9.63;2.92;;;;;;;;;;5028501;28;20045;-69
2022/07/10 02:51:55;;;;;;;6.28;3.00;;;;;;;;;;5025439;28;20045;-71
2022/07/10 02:54:21;;;;;;;7.65;2.88;;;;;;;;;;5026481;28;20241;-70
2022/07/10 02:56:47;;;;;;;5.72;2.67;;;;;;;;;;5028907;28;20435;-68
2022/07/10 02:59:13;;;;;;;6.88;2.30;;;;;;;;;;5023719;28;20144;-71
2022/07/10 03:01:39;;;;;;;6.15;3.00;;;;;;;;;;5029630;28;20084;-71
2022/07/10 03:04:05;;;;;;;7.50;2.47;;;;;;;;;;5027794;28;20128;-70
2022/07/10 03:06:30;;;;;;;5.32;2.17;;;;;;;;;;5029510;28;20077;-70
2022/07/10 03:08:56;;;;;;;3.45;1.90;;;;;;;;;;5029557;28;20037;-72
2022/07/10 03:11:22;;;;;;;6.15;2.20;;;;;;;;;;5027348;28;20095;-70
2022/07/10 03:13:48;;;;;;;5.25;2.08;;;;;;;;;;5028230;28;20473;-73
2022/07/10 03:16:14;;;;;;;3.95;1.95;;;;;;;;;;5026763;28;20842;-72
2022/07/10 03:18:40;;;;;;;6.43;2.47;;;;;;;;;;5026511;28;20557;-69
2022/07/10 03:21:05;;;;;;;3.95;2.10;;;;;;;;;;5030227;28;20053;-71
2022/07/10 03:23:31;;;;;;;6.72;2.42;;;;;;;;;;5026861;28;20067;-72
2022/07/10 03:25:57;;;;;;;5.28;1.92;;;;;;;;;;5032550;28;20438;-71
2022/07/10 03:28:23;;;;;;;7.70;2.00;;;;;;;;;;5032857;28;20090;-70
2022/07/10 03:30:49;;;;;;;6.07;2.30;;;;;;;;;;5025084;28;20498;-70
2022/07/10 03:33:15;;;;;;;4.88;2.08;;;;;;;;;;5028354;28;20143;-70
2022/07/10 03:35:40;;;;;;;7.30;2.45;;;;;;;;;;5029233;28;20057;-69
2022/07/10 03:38:06;;;;;;;3.17;2.10;;;;;;;;;;5033709;28;20113;-70
2022/07/10 03:40:33;;;;;;;4.35;2.15;;;;;;;;;;5033340;28;20072;-71
2022/07/10 03:42:59;;;;;;;4.93;1.95;;;;;;;;;;5032019;28;20551;-71
2022/07/10 03:45:31;;;;;;;6.35;2.10;;;;;;;;;;5031318;28;20118;-76
2022/07/10 03:47:57;;;;;;;7.40;2.20;;;;;;;;;;5027409;28;20052;-73
2022/07/10 03:50:23;;;;;;;6.57;2.00;;;;;;;;;;5026311;28;20104;-70
2022/07/10 03:52:49;;;;;;;7.30;2.08;;;;;;;;;;5032478;28;20122;-71
2022/07/10 03:55:15;;;;;;;5.07;2.47;;;;;;;;;;5027532;28;20037;-70
2022/07/10 03:57:53;;;;;;;3.83;2.40;;;;;;;;;;5027975;28;20140;-73
2022/07/10 04:00:24;;;;;;;4.43;2.00;;;;;;;;;;5026784;28;20465;-70
2022/07/10 04:03:01;;;;;;;7.35;2.25;;;;;;;;;;5028118;28;20077;-71
2022/07/10 04:05:27;;;;;;;4.55;2.30;;;;;;;;;;5028191;28;20132;-71
2022/07/10 04:07:56;;;;;;;5.85;2.13;;;;;;;;;;5009889;28;20042;-71
2022/07/10 04:10:23;;;;;;;6.18;1.98;;;;;;;;;;5033193;28;20049;-69
2022/07/10 04:12:50;;;;;;;4.78;2.33;;;;;;;;;;5035667;28;20141;-70
2022/07/10 04:15:16;;;;;;;5.78;2.30;;;;;;;;;;5026865;28;20109;-70
2022/07/10 04:17:42;;;;;;;3.30;2.08;;;;;;;;;;5029327;28;20125;-72
2022/07/10 04:20:09;;;;;;;5.75;2.40;;;;;;;;;;5031211;28;20141;-71
2022/07/10 04:22:35;;;;;;;4.72;2.22;;;;;;;;;;5034068;28;20049;-70
2022/07/10 04:25:01;;;;;;;5.22;2.00;;;;;;;;;;5029040;28;20052;-71
2022/07/10 04:27:28;;;;;;;5.10;2.15;;;;;;;;;;5031130;28;20067;-70
2022/07/10 04:29:54;;;;;;;5.57;2.05;;;;;;;;;;5036835;28;20045;-71
2022/07/10 04:32:20;;;;;;;6.82;2.33;;;;;;;;;;5031063;28;20052;-71
2022/07/10 04:34:46;;;;;;;5.32;2.58;;;;;;;;;;5025498;28;20414;-69
2022/07/10 04:37:12;;;;;;;8.73;2.53;;;;;;;;;;5027382;28;20054;-70
2022/07/10 04:39:39;;;;;;;5.57;2.30;;;;;;;;;;5028233;28;20057;-70
2022/07/10 04:42:06;;;;;;;7.53;2.65;;;;;;;;;;5028735;28;20140;-71
2022/07/10 04:44:32;;;;;;;5.72;2.17;;;;;;;;;;5024361;28;20225;-70
2022/07/10 04:46:58;;;;;;;9.60;2.40;;;;;;;;;;5025595;28;20049;-70
2022/07/10 04:49:25;;;;;;;6.32;2.30;;;;;;;;;;5035643;28;20048;-73
2022/07/10 04:51:51;;;;;;;5.30;2.50;;;;;;;;;;5025483;28;20113;-71
2022/07/10 04:54:17;;;;;;;5.38;2.75;;;;;;;;;;5022117;28;20118;-70
2022/07/10 04:56:43;;;;;;;5.30;2.40;;;;;;;;;;5037504;28;20145;-70
2022/07/10 04:59:09;;;;;;;5.05;2.10;;;;;;;;;;5031776;28;20052;-70
2022/07/10 05:01:37;;;;;;;4.68;2.28;;;;;;;;;;5029750;28;20049;-72
2022/07/10 05:04:03;;;;;;;4.25;2.20;;;;;;;;;;5026221;28;20494;-69
2022/07/10 05:06:30;;;;;;;7.25;2.30;;;;;;;;;;5028715;28;20668;-71
2022/07/10 05:08:56;;;;;;;6.25;2.33;;;;;;;;;;5032447;28;20046;-70
2022/07/10 05:11:22;;;;;;;7.25;2.67;;;;;;;;;;5025045;28;20041;-69
2022/07/10 05:13:49;;;;;;;6.25;2.20;;;;;;;;;;5037564;28;20044;-69
2022/07/10 05:16:15;;;;;;;5.70;2.00;;;;;;;;;;5030193;28;20109;-72
2022/07/10 05:18:42;;;;;;;3.33;1.92;;;;;;;;;;5038314;28;20059;-69
2022/07/10 05:21:07;;;;;;;5.57;2.40;;;;;;;;;;5033120;28;20468;-69
2022/07/10 05:23:34;;;;;;;3.60;2.03;;;;;;;;;;5028728;28;20036;-73
2022/07/10 05:26:00;;;;;;;5.70;2.13;;;;;;;;;;5035961;28;20057;-69
2022/07/10 05:28:26;;;;;;;5.38;2.15;;;;;;;;;;5029564;28;20384;-70
2022/07/10 05:30:52;;;;;;;4.32;2.17;;;;;;;;;;5029389;28;20041;-71
2022/07/10 05:33:19;;;;;;;5.28;2.30;;;;;;;;;;5024338;28;20080;-70
2022/07/10 05:35:45;;;;;;;7.97;2.28;;;;;;;;;;5027201;28;20045;-72
2022/07/10 05:38:11;;;;;;;7.53;2.38;;;;;;;;;;5026840;28;20053;-70
2022/07/10 05:40:37;;;;;;;5.32;2.20;;;;;;;;;;5029998;28;20091;-71
2022/07/10 05:43:03;;;;;;;4.40;2.28;;;;;;;;;;5033788;28;20128;-69
2022/07/10 05:45:29;;;;;;;8.23;2.45;;;;;;;;;;5024466;28;20120;-71
2022/07/10 05:47:55;;;;;;;5.72;2.78;;;;;;;;;;5029520;28;20132;-71
2022/07/10 05:50:21;;;;;;;8.90;2.83;;;;;;;;;;5034092;28;20160;-72
2022/07/10 05:52:47;;;;;;;8.85;2.45;;;;;;;;;;5028460;28;20441;-69
2022/07/10 05:55:14;;;;;;;9.63;2.85;;;;;;;;;;5022213;28;20088;-72
2022/07/10 05:57:40;;;;;;;6.60;2.58;;;;;;;;;;5030068;28;20470;-69
2022/07/10 06:00:07;;;;;;;7.75;2.55;;;;;;;;;;5022997;28;20065;-72
2022/07/10 06:02:33;;;;;;;3.58;2.22;;;;;;;;;;5014722;28;20877;-71
2022/07/10 06:04:59;;;;;;;7.70;2.63;;;;;;;;;;5024329;28;21554;-69
2022/07/10 06:07:26;;;;;;;9.00;2.70;;;;;;;;;;5030856;28;20056;-70
2022/07/10 06:09:54;;;;;;;7.05;2.40;;;;;;;;;;5021915;28;20049;-70
2022/07/10 06:12:20;;;;;;;5.40;2.47;;;;;;;;;;5025120;28;20052;-71
2022/07/10 06:14:46;;;;;;;6.95;2.38;;;;;;;;;;5027393;28;20314;-70
2022/07/10 06:17:12;;;;;;;8.85;2.20;;;;;;;;;;5030928;28;20667;-73
2022/07/10 06:19:38;;;;;;;5.88;2.70;;;;;;;;;;5033845;28;20875;-70
2022/07/10 06:24:48;;;;;;;5.78;2.50;;;;;;;;;;5027198;28;20038;-70
2022/07/10 06:27:14;;;;;;;5.28;2.58;;;;;;;;;;5026693;28;20102;-69
2022/07/10 06:29:40;;;;;;;5.40;2.45;;;;;;;;;;5030689;28;20059;-70
2022/07/10 06:32:06;;;;;;;10.02;2.58;;;;;;;;;;5020662;28;20590;-70
2022/07/10 06:34:32;;;;;;;8.07;3.30;;;;;;;;;;5026261;28;20059;-71
2022/07/10 06:36:58;;;;;;;6.10;2.78;;;;;;;;;;5022268;28;20049;-70
2022/07/10 06:39:24;;;;;;;5.78;2.72;;;;;;;;;;5020760;28;20067;-70
2022/07/10 06:41:50;;;;;;;4.78;2.03;;;;;;;;;;5021770;28;20049;-70
2022/07/10 06:44:16;;;;;;;8.10;2.95;;;;;;;;;;5022777;28;20077;-69
2022/07/10 06:46:42;;;;;;;3.92;1.98;;;;;;;;;;5023834;28;20418;-70
2022/07/10 06:49:08;;;;;;;8.27;2.00;;;;;;;;;;5032467;28;20080;-70
2022/07/10 06:51:34;;;;;;;7.18;2.03;;;;;;;;;;5022950;28;20395;-72
2022/07/10 06:54:00;;;;;;;5.53;2.00;;;;;;;;;;5024692;28;20061;-71
2022/07/10 06:56:27;;;;;;;6.28;2.28;;;;;;;;;;5025220;28;20049;-73
2022/07/10 06:58:53;;;;;;;5.55;2.20;;;;;;;;;;5034316;28;20050;-72
2022/07/10 07:01:19;;;;;;;6.40;2.03;;;;;;;;;;5030263;28;20087;-72
2022/07/10 07:03:45;;;;;;;6.53;2.30;;;;;;;;;;5033041;28;20111;-72
2022/07/10 07:06:10;;;;;;;5.32;2.22;;;;;;;;;;5033828;28;20461;-71
2022/07/10 07:08:36;;;;;;;8.15;2.00;;;;;;;;;;5022513;28;20057;-67
2022/07/10 07:11:02;;;;;;;3.38;1.90;;;;;;;;;;5030172;28;20414;-67
2022/07/10 07:13:28;;;;;;;4.68;2.33;;;;;;;;;;5027507;28;20037;-68
2022/07/10 07:16:04;;;;;;;4.68;1.95;;;;;;;;;;5027206;28;20553;-68
2022/07/10 07:18:35;;;;;;;7.32;1.80;;;;;;;;;;5028922;28;20466;-69
2022/07/10 07:23:45;;;;;;;3.63;2.13;;;;;;;;;;5031246;28;20360;-69
2022/07/10 07:26:11;;;;;;;6.53;2.20;;;;;;;;;;5031752;28;20505;-69
2022/07/10 07:28:37;;;;;;;7.57;2.00;;;;;;;;;;5035411;28;20141;-69
2022/07/10 07:31:03;;;;;;;3.90;1.92;;;;;;;;;;5037392;28;20044;-68
2022/07/10 07:33:30;;;;;;;7.00;2.40;;;;;;;;;;5029741;28;20076;-68
2022/07/10 07:35:56;;;;;;;5.75;2.20;;;;;;;;;;5027450;28;20064;-69
2022/07/10 07:38:22;;;;;;;8.18;2.42;;;;;;;;;;5022186;28;20041;-69
2022/07/10 07:40:48;;;;;;;6.40;2.30;;;;;;;;;;5027523;28;20053;-68
2022/07/10 07:43:14;;;;;;;9.50;2.05;;;;;;;;;;5032394;28;20525;-67
2022/07/10 07:45:39;;;;;;;5.57;2.00;;;;;;;;;;5031280;28;20045;-68
2022/07/10 07:48:05;;;;;;;4.78;2.13;;;;;;;;;;5026172;28;20396;-70
2022/07/10 07:50:33;;;;;;;6.80;2.22;;;;;;;;;;5031112;28;20571;-69
2022/07/10 07:53:03;;;;;;;5.00;1.85;;;;;;;;;;5029535;28;20333;-68
2022/07/10 07:55:32;;;;;;;6.82;2.10;;;;;;;;;;5028663;28;20283;-71
2022/07/10 07:57:58;;;;;;;6.03;2.15;;;;;;;;;;5030331;28;20477;-67
2022/07/10 08:00:26;;;;;;;4.80;2.00;;;;;;;;;;5033139;28;20091;-67
2022/07/10 08:02:54;;;;;;;5.47;2.15;;;;;;;;;;5025535;28;20073;-71
2022/07/10 08:05:20;;;;;;;4.28;2.15;;;;;;;;;;5027006;28;20065;-69
2022/07/10 08:07:49;;;;;;;4.03;2.10;;;;;;;;;;5030305;28;20049;-69
2022/07/10 08:10:17;;;;;;;3.72;1.88;;;;;;;;;;5028315;28;20126;-68
2022/07/10 08:12:46;;;;;;;3.75;1.95;;;;;;;;;;5024048;28;20049;-71
2022/07/10 08:15:14;;;;;;;4.88;2.30;;;;;;;;;;5013957;28;20802;-69
2022/07/10 08:17:40;;;;;;;10.30;2.55;;;;;;;;;;5025552;28;20060;-69
2022/07/10 08:20:08;;;;;;;5.38;2.10;;;;;;;;;;5029494;28;20434;-67
2022/07/10 08:22:34;;;;;;;6.72;2.20;;;;;;;;;;5029798;28;20124;-69
2022/07/10 08:25:00;;;;;;;3.72;2.08;;;;;;;;;;5030000;28;20052;-69
2022/07/10 08:27:26;;;;;;;6.85;2.33;;;;;;;;;;5029018;28;20391;-70
2022/07/10 08:29:52;;;;;;;4.57;2.30;;;;;;;;;;5029809;28;20131;-70
2022/07/10 08:32:18;;;;;;;4.13;2.08;;;;;;;;;;5029552;28;20068;-71
2022/07/10 08:34:44;;;;;;;4.60;2.35;;;;;;;;;;5027548;28;20881;-67
2022/07/10 08:37:10;;;;;;;6.55;2.30;;;;;;;;;;5035213;28;20053;-67
2022/07/10 08:39:37;;;;;;;7.82;3.13;;;;;;;;;;5030147;28;20133;-69
2022/07/10 08:42:07;;;;;;;4.82;2.17;;;;;;;;;;5033882;28;20156;-67
2022/07/10 08:44:37;;;;;;;10.77;2.50;;;;;;;;;;5028986;28;20418;-67
2022/07/10 08:47:04;;;;;;;6.03;1.92;;;;;;;;;;5032965;28;20094;-67
2022/07/10 08:49:31;;;;;;;7.57;2.28;;;;;;;;;;5022172;28;20049;-67
2022/07/10 08:52:08;;;;;;;6.55;2.60;;;;;;;;;;5028336;28;20042;-66
2022/07/10 08:54:37;;;;;;;8.13;2.70;;;;;;;;;;5016955;28;20460;-70
2022/07/10 08:57:03;;;;;;;8.35;2.88;;;;;;;;;;5034281;28;20057;-68
2022/07/10 08:59:30;;;;;;;5.65;2.47;;;;;;;;;;5036781;28;20469;-69
2022/07/10 09:01:57;;;;;;;7.13;2.47;;;;;;;;;;5032184;28;20188;-67
2022/07/10 09:04:25;;;;;;;5.97;2.30;;;;;;;;;;5034751;28;20041;-68
2022/07/10 09:06:52;;;;;;;5.55;2.28;;;;;;;;;;5029084;28;20069;-69
2022/07/10 09:09:19;;;;;;;7.55;2.70;;;;;;;;;;5032860;28;20554;-68
2022/07/10 09:11:46;;;;;;;6.80;2.40;;;;;;;;;;5035157;28;20068;-67
2022/07/10 09:14:15;;;;;;;7.00;2.42;;;;;;;;;;5019174;28;20058;-70
2022/07/10 09:16:49;;;;;;;17.33;2.75;;;;;;;;;;5029525;28;20105;-73
2022/07/10 09:19:19;;;;;;;4.60;2.05;;;;;;;;;;5030333;28;20045;-74
2022/07/10 09:22:15;;;;;;;6.53;2.17;;;;;;;;;;5036357;28;20071;-78
2022/07/10 09:24:46;;;;;;;7.38;2.50;;;;;;;;;;5016283;28;20131;-74
2022/07/10 09:27:15;;;;;;;4.38;2.03;;;;;;;;;;5033688;28;20114;-77
2022/07/10 09:29:54;;;;;;;4.57;1.98;;;;;;;;;;5037238;28;20266;-76
2022/07/10 09:32:20;;;;;;;9.32;2.33;;;;;;;;;;5035003;28;20616;-76
2022/07/10 09:34:47;;;;;;;3.92;2.35;;;;;;;;;;5026260;28;20037;-71
2022/07/10 09:37:27;;;;;;;5.38;2.08;;;;;;;;;;5030107;28;20056;-76
2022/07/10 09:40:00;;;;;;;3.65;1.92;;;;;;;;;;5026481;28;20126;-73
2022/07/10 09:42:30;;;;;;;5.22;2.05;;;;;;;;;;5034998;28;20041;-74
2022/07/10 09:45:12;;;;;;;5.93;2.00;;;;;;;;;;5031771;28;20053;-73
2022/07/10 09:47:57;;;;;;;6.35;1.83;;;;;;;;;;5026295;28;20554;-71
2022/07/10 09:50:41;;;;;;;4.68;1.83;;;;;;;;;;5032839;28;20075;-72
2022/07/10 09:53:12;;;;;;;8.98;2.15;;;;;;;;;;5031844;28;20149;-73
2022/07/10 09:55:38;;;;;;;6.45;1.80;;;;;;;;;;5028554;28;20048;-75
2022/07/10 09:58:06;;;;;;;2.67;1.90;;;;;;;;;;5029108;28;20053;-72
2022/07/10 10:00:46;;;;;;;5.32;2.00;;;;;;;;;;5029601;28;20049;-72
2022/07/10 10:03:14;;;;;;;4.15;2.00;;;;;;;;;;5025432;28;20053;-73
2022/07/10 10:05:52;;;;;;;6.68;2.42;;;;;;;;;;5028002;28;20522;-72
2022/07/10 10:08:25;;;;;;;5.13;1.90;;;;;;;;;;5025193;28;20083;-70
2022/07/10 10:10:51;;;;;;;6.90;2.17;;;;;;;;;;5023046;28;20338;-72
2022/07/10 10:13:32;;;;;;;4.63;1.98;;;;;;;;;;5026323;28;20049;-75
2022/07/10 10:15:58;;;;;;;7.75;2.00;;;;;;;;;;5029250;28;20060;-75
2022/07/10 10:18:26;;;;;;;9.68;2.20;;;;;;;;;;5029248;28;20038;-75
2022/07/10 10:20:53;;;;;;;8.38;2.10;;;;;;;;;;5025069;28;20052;-76
2022/07/10 10:23:21;;;;;;;3.22;1.88;;;;;;;;;;5035295;28;20404;-74
2022/07/10 10:25:53;;;;;;;10.20;1.77;;;;;;;;;;5027162;28;20144;-76
2022/07/10 10:28:23;;;;;;;5.75;1.85;;;;;;;;;;5032790;28;20195;-75
2022/07/10 10:30:52;;;;;;;2.85;1.70;;;;;;;;;;5027506;28;20048;-76
2022/07/10 10:33:37;;;;;;;4.28;1.70;;;;;;;;;;5026898;28;20041;-76
2022/07/10 10:36:05;;;;;;;6.40;1.80;;;;;;;;;;5030501;28;20059;-76
2022/07/10 10:38:51;;;;;;;4.43;2.08;;;;;;;;;;5026913;28;20049;-74
2022/07/10 10:41:37;;;;;;;3.40;1.80;;;;;;;;;;5028702;28;20057;-75
2022/07/10 10:46:36;;;;;;;4.75;2.03;;;;;;;;;;5030576;28;20108;-72
2022/07/10 10:49:06;;;;;;;7.53;2.05;;;;;;;;;;5026062;28;20048;-75
2022/07/10 10:52:06;;;;;;;7.43;1.90;;;;;;;;;;5030150;28;20104;-78
2022/07/10 10:54:57;;;;;;;4.07;1.85;;;;;;;;;;5026300;28;20152;-74
2022/07/10 10:57:51;;;;;;;5.75;1.73;;;;;;;;;;5030021;28;20049;-78
2022/07/10 11:00:30;;;;;;;;;;;;;;;;;;5033882;28;20156;-78
2022/07/10 11:03:15;;;;;;;10.35;2.40;;;;;;;;;;5026283;28;19927;-78
2022/07/10 11:05:43;;;;;;;5.55;1.95;;;;;;;;;;5024605;28;20121;-76
2022/07/10 11:08:09;;;;;;;6.32;2.17;;;;;;;;;;5032993;28;20057;-76
2022/07/10 11:10:45;;;;;;;6.55;2.05;;;;;;;;;;5024465;28;20049;-74
2022/07/10 11:13:11;;;;;;;5.88;1.95;;;;;;;;;;5024777;28;20141;-75
2022/07/10 11:15:42;;;;;;;6.45;1.92;;;;;;;;;;5029067;28;20049;-73
2022/07/10 11:18:19;;;;;;;15.18;3.05;;;;;;;;;;5027919;28;20061;-72
2022/07/10 11:20:50;;;;;;;8.75;2.63;;;;;;;;;;5030576;28;20053;-73
2022/07/10 11:23:34;;;;;;;14.73;3.95;;;;;;;;;;5029287;28;20064;-72
2022/07/10 11:26:08;;;;;;;5.90;1.88;;;;;;;;;;5025244;28;20125;-72
2022/07/10 11:28:37;;;;;;;;;;;;;;;;;;5030500;28;20867;-72
2022/07/10 11:31:03;;;;;;;5.20;1.90;;;;;;;;;;5029847;28;19951;-75
2022/07/10 11:33:29;;;;;;;4.00;1.77;;;;;;;;;;5027496;28;20072;-75
2022/07/10 11:35:55;;;;;;;5.93;1.90;;;;;;;;;;5027393;28;20073;-79
2022/07/10 11:38:26;;;;;;;4.30;1.70;;;;;;;;;;5024156;28;20056;-75
2022/07/10 11:40:55;;;;;;;6.85;1.77;;;;;;;;;;5022492;28;20047;-76
2022/07/10 11:43:23;;;;;;;4.90;1.80;;;;;;;;;;5026775;28;20055;-75
2022/07/10 11:45:50;;;;;;;5.65;1.88;;;;;;;;;;5027808;28;20049;-77
2022/07/10 11:48:17;;;;;;;7.22;1.88;;;;;;;;;;5037212;28;20049;-74
2022/07/10 11:50:43;;;;;;;6.20;1.80;;;;;;;;;;5033495;28;20427;-73
2022/07/10 11:53:10;;;;;;;5.93;1.98;;;;;;;;;;5033023;28;20508;-76
2022/07/10 11:55:40;;;;;;;6.82;2.08;;;;;;;;;;5030717;28;20486;-74
2022/07/10 11:58:16;;;;;;;5.00;1.92;;;;;;;;;;5031013;28;20053;-73
2022/07/10 12:00:43;;;;;;;4.88;1.80;;;;;;;;;;5045276;28;20053;-72
2022/07/10 12:03:20;;;;;;;7.63;2.28;;;;;;;;;;5034429;28;20053;-71
2022/07/10 12:05:48;;;;;;;6.47;2.30;;;;;;;;;;5039209;28;20404;-71
2022/07/10 12:08:14;;;;;;;4.65;2.20;;;;;;;;;;5032582;28;20510;-74
2022/07/10 12:10:43;;;;;;;6.05;2.17;;;;;;;;;;5030721;28;20052;-76
2022/07/10 12:13:14;;;;;;;6.85;1.95;;;;;;;;;;5030689;28;20064;-75
2022/07/10 12:15:41;;;;;;;6.07;1.85;;;;;;;;;;5025394;28;20053;-73
2022/07/10 12:18:08;;;;;;;5.80;1.83;;;;;;;;;;5034689;28;20057;-74
2022/07/10 12:20:37;;;;;;;5.05;1.85;;;;;;;;;;5036434;28;20068;-72
2022/07/10 12:23:04;;;;;;;8.52;2.25;;;;;;;;;;5032490;28;20441;-72
2022/07/10 12:25:30;;;;;;;4.00;1.85;;;;;;;;;;5023088;28;20132;-72
2022/07/10 12:28:00;;;;;;;3.63;1.80;;;;;;;;;;5035311;28;20056;-74
2022/07/10 12:30:42;;;;;;;6.82;1.95;;;;;;;;;;5033620;28;20068;-71
2022/07/10 12:33:16;;;;;;;4.80;2.00;;;;;;;;;;5031729;28;20049;-75
2022/07/10 12:35:56;;;;;;;6.15;2.42;;;;;;;;;;5026228;28;20045;-71
2022/07/10 12:38:27;;;;;;;6.43;2.00;;;;;;;;;;5032983;28;20056;-74
2022/07/10 12:41:11;;;;;;;6.30;1.90;;;;;;;;;;5036339;28;20041;-73
2022/07/10 12:43:37;;;;;;;;;;;;;;;;;;5032754;28;20128;-73
2022/07/10 12:46:19;;;;;;;3.53;1.50;;;;;;;;;;5032226;28;20047;-73
2022/07/10 12:49:01;;;;;;;4.60;1.85;;;;;;;;;;5031925;28;20065;-72
2022/07/10 12:51:32;;;;;;;5.13;2.20;;;;;;;;;;5033446;28;20128;-76
2022/07/10 12:53:59;;;;;;;5.05;1.88;;;;;;;;;;5029779;28;20045;-73
2022/07/10 12:56:36;;;;;;;4.20;1.70;;;;;;;;;;5031680;28;20045;-72
2022/07/10 12:59:11;;;;;;;5.80;2.08;;;;;;;;;;5026349;28;20133;-72
2022/07/10 13:01:42;;;;;;;5.47;2.00;;;;;;;;;;5025682;28;20554;-72
2022/07/10 13:04:11;;;;;;;5.10;1.95;;;;;;;;;;5025715;28;20477;-73
2022/07/10 13:06:39;;;;;;;4.97;1.83;;;;;;;;;;5026997;28;20057;-73
2022/07/10 13:09:25;;;;;;;5.03;2.05;;;;;;;;;;5034763;28;20140;-72
2022/07/10 13:11:53;;;;;;;3.58;1.70;;;;;;;;;;5029425;28;20633;-72
2022/07/10 13:14:20;;;;;;;9.75;1.80;;;;;;;;;;5024198;28;20398;-72
2022/07/10 13:16:46;;;;;;;6.82;1.90;;;;;;;;;;5031791;28;20050;-73
2022/07/10 13:19:12;;;;;;;6.03;2.10;;;;;;;;;;5026581;28;20054;-74
2022/07/10 13:21:39;;;;;;;4.85;2.20;;;;;;;;;;5025269;28;20430;-72
2022/07/10 13:24:05;;;;;;;5.25;2.00;;;;;;;;;;5029042;28;20534;-74
2022/07/10 13:26:32;;;;;;;3.50;1.70;;;;;;;;;;5022545;28;20053;-75
2022/07/10 13:28:59;;;;;;;3.70;1.77;;;;;;;;;;5027319;28;20069;-73
2022/07/10 13:31:25;;;;;;;3.50;1.80;;;;;;;;;;5023036;28;20049;-72
2022/07/10 13:33:51;;;;;;;5.40;1.80;;;;;;;;;;5029638;28;20053;-71
2022/07/10 13:36:17;;;;;;;8.02;1.65;;;;;;;;;;5030356;28;20549;-72
2022/07/10 13:38:43;;;;;;;5.50;1.50;;;;;;;;;;5032133;28;20052;-71
2022/07/10 13:41:09;;;;;;;4.03;1.35;;;;;;;;;;5032734;28;20140;-73
2022/07/10 13:43:34;;;;;;;3.45;1.40;;;;;;;;;;5028032;28;20372;-72
2022/07/10 13:46:01;;;;;;;3.22;1.70;;;;;;;;;;5028711;28;20103;-71
2022/07/10 13:48:29;;;;;;;3.97;1.83;;;;;;;;;;5031762;28;20045;-72
2022/07/10 13:50:55;;;;;;;4.30;1.70;;;;;;;;;;5033915;28;20041;-72
2022/07/10 13:53:21;;;;;;;4.88;1.90;;;;;;;;;;5032419;28;20059;-73
2022/07/10 13:55:48;;;;;;;6.50;1.80;;;;;;;;;;5028251;28;20518;-75
2022/07/10 13:58:14;;;;;;;4.45;1.63;;;;;;;;;;5027805;28;20128;-74
2022/07/10 14:00:40;;;;;;;5.70;1.63;;;;;;;;;;5029876;28;20185;-74
2022/07/10 14:03:07;;;;;;;3.55;1.50;;;;;;;;;;5031445;28;20069;-76
2022/07/10 14:05:33;;;;;;;5.55;1.80;;;;;;;;;;5032541;28;20048;-71
2022/07/10 14:08:00;;;;;;;4.70;1.50;;;;;;;;;;5035049;28;20112;-73
2022/07/10 14:10:27;;;;;;;4.35;1.70;;;;;;;;;;5030154;28;20183;-73
2022/07/10 14:12:53;;;;;;;5.30;1.40;;;;;;;;;;5028195;28;20406;-73
2022/07/10 14:15:19;;;;;;;6.45;2.08;;;;;;;;;;5026422;28;20396;-74
2022/07/10 14:17:46;;;;;;;4.90;1.70;;;;;;;;;;5032440;28;20116;-75
2022/07/10 14:20:12;;;;;;;3.63;1.70;;;;;;;;;;5028578;28;20132;-74
2022/07/10 14:22:38;;;;;;;4.45;1.75;;;;;;;;;;5029711;28;20513;-76
2022/07/10 14:25:05;;;;;;;6.18;1.95;;;;;;;;;;5033379;28;20078;-73
2022/07/10 14:27:33;;;;;;;3.67;1.55;;;;;;;;;;5029416;28;20042;-76
2022/07/10 14:29:59;;;;;;;6.40;1.88;;;;;;;;;;5028512;28;20055;-74
2022/07/10 14:32:25;;;;;;;5.18;1.77;;;;;;;;;;5030063;28;20049;-75
2022/07/10 14:34:51;;;;;;;5.15;1.90;;;;;;;;;;5029206;28;20041;-76
2022/07/10 14:37:17;;;;;;;4.60;1.75;;;;;;;;;;5026613;28;20495;-75
2022/07/10 14:39:46;;;;;;;5.22;1.70;;;;;;;;;;5032326;28;20128;-74
2022/07/10 14:42:12;;;;;;;4.75;1.83;;;;;;;;;;5034916;28;20053;-74
2022/07/10 14:44:38;;;;;;;5.40;1.90;;;;;;;;;;5031071;28;20067;-74
2022/07/10 14:47:04;;;;;;;6.93;1.58;;;;;;;;;;5032351;28;20136;-74
2022/07/10 14:49:31;;;;;;;9.30;2.20;;;;;;;;;;5036138;28;20068;-75
2022/07/10 14:51:56;;;;;;;5.40;1.80;;;;;;;;;;5029177;28;20048;-74
2022/07/10 14:54:23;;;;;;;9.95;2.20;;;;;;;;;;5028239;28;20079;-72
2022/07/10 14:56:48;;;;;;;8.77;1.92;;;;;;;;;;5036479;28;20140;-74
2022/07/10 14:59:14;;;;;;;5.07;1.80;;;;;;;;;;5034466;28;20061;-73